sensor_id;sensor_type;location;lat;lon;timestamp;temperature;humidity
54622;DHT22;40521;53.146;6.556;2022-11-15T00:01:05;7.30;99.90
54622;DHT22;40521;53.146;6.556;2022-11-15T00:03:34;7.80;99.90
54622;DHT22;40521;53.146;6.556;2022-11-15T00:06:03;6.10;99.90
54622;DHT22;40521;53.146;6.556;2022-11-15T00:08:32;7.10;99.90
54622;DHT22;40521;53.146;6.556;2022-11-15T00:10:59;8.70;99.90
54622;DHT22;40521;53.146;6.556;2022-11-15T00:13:25;7.00;99.90
54622;DHT22;40521;53.146;6.556;2022-11-15T00:15:51;6.90;99.90
54622;DHT22;40521;53.146;6.556;2022-11-15T00:18:16;7.00;99.90
54622;DHT22;40521;53.146;6.556;2022-11-15T00:20:42;6.90;99.90
54622;DHT22;40521;53.146;6.556;2022-11-15T00:23:08;7.10;99.90
54622;DHT22;40521;53.146;6.556;2022-11-15T00:25:34;7.00;99.90
54622;DHT22;40521;53.146;6.556;2022-11-15T00:28:00;6.60;99.90
54622;DHT22;40521;53.146;6.556;2022-11-15T00:30:26;6.50;99.90
54622;DHT22;40521;53.146;6.556;2022-11-15T00:32:54;8.30;99.90
54622;DHT22;40521;53.146;6.556;2022-11-15T00:35:20;7.00;99.90
54622;DHT22;40521;53.146;6.556;2022-11-15T00:37:47;6.50;99.90
54622;DHT22;40521;53.146;6.556;2022-11-15T00:40:15;6.50;99.90
54622;DHT22;40521;53.146;6.556;2022-11-15T00:42:43;7.20;99.90
54622;DHT22;40521;53.146;6.556;2022-11-15T00:45:09;5.40;99.90
54622;DHT22;40521;53.146;6.556;2022-11-15T00:47:38;6.60;99.90
54622;DHT22;40521;53.146;6.556;2022-11-15T00:50:04;6.60;99.90
54622;DHT22;40521;53.146;6.556;2022-11-15T00:52:33;6.70;99.90
54622;DHT22;40521;53.146;6.556;2022-11-15T00:55:03;7.10;99.90
54622;DHT22;40521;53.146;6.556;2022-11-15T00:57:29;6.90;99.90
54622;DHT22;40521;53.146;6.556;2022-11-15T00:59:54;6.90;99.90
54622;DHT22;40521;53.146;6.556;2022-11-15T01:02:20;6.90;99.90
54622;DHT22;40521;53.146;6.556;2022-11-15T01:04:58;7.20;99.90
54622;DHT22;40521;53.146;6.556;2022-11-15T01:07:24;7.60;99.90
54622;DHT22;40521;53.146;6.556;2022-11-15T01:09:50;7.00;99.90
54622;DHT22;40521;53.146;6.556;2022-11-15T01:12:19;6.00;99.90
54622;DHT22;40521;53.146;6.556;2022-11-15T01:14:47;6.90;99.90
54622;DHT22;40521;53.146;6.556;2022-11-15T01:17:12;5.70;99.90
54622;DHT22;40521;53.146;6.556;2022-11-15T01:19:38;6.80;99.90
54622;DHT22;40521;53.146;6.556;2022-11-15T01:22:06;6.80;99.90
54622;DHT22;40521;53.146;6.556;2022-11-15T01:24:33;7.00;99.90
54622;DHT22;40521;53.146;6.556;2022-11-15T01:26:58;7.00;99.90
54622;DHT22;40521;53.146;6.556;2022-11-15T01:29:24;6.70;99.90
54622;DHT22;40521;53.146;6.556;2022-11-15T01:31:53;6.90;99.90
54622;DHT22;40521;53.146;6.556;2022-11-15T01:34:19;6.80;99.90
54622;DHT22;40521;53.146;6.556;2022-11-15T01:36:50;7.00;99.90
54622;DHT22;40521;53.146;6.556;2022-11-15T01:39:16;6.80;99.90
54622;DHT22;40521;53.146;6.556;2022-11-15T01:41:51;7.00;99.90
54622;DHT22;40521;53.146;6.556;2022-11-15T01:47:22;6.80;99.90
54622;DHT22;40521;53.146;6.556;2022-11-15T01:50:02;7.00;99.90
54622;DHT22;40521;53.146;6.556;2022-11-15T01:52:30;6.80;99.90
54622;DHT22;40521;53.146;6.556;2022-11-15T01:55:08;7.40;99.90
54622;DHT22;40521;53.146;6.556;2022-11-15T01:57:34;6.80;99.90
54622;DHT22;40521;53.146;6.556;2022-11-15T02:00:01;6.90;99.90
54622;DHT22;40521;53.146;6.556;2022-11-15T02:02:30;6.90;99.90
54622;DHT22;40521;53.146;6.556;2022-11-15T02:04:55;6.80;99.90
54622;DHT22;40521;53.146;6.556;2022-11-15T02:07:21;7.10;99.90
54622;DHT22;40521;53.146;6.556;2022-11-15T02:09:47;5.50;99.90
54622;DHT22;40521;53.146;6.556;2022-11-15T02:12:14;6.90;99.90
54622;DHT22;40521;53.146;6.556;2022-11-15T02:14:41;6.90;99.90
54622;DHT22;40521;53.146;6.556;2022-11-15T02:33:09;6.80;99.90
54622;DHT22;40521;53.146;6.556;2022-11-15T02:38:12;7.10;99.90
54622;DHT22;40521;53.146;6.556;2022-11-15T02:43:45;6.90;99.90
54622;DHT22;40521;53.146;6.556;2022-11-15T02:46:37;7.20;99.90
54622;DHT22;40521;53.146;6.556;2022-11-15T02:49:23;6.90;99.90
54622;DHT22;40521;53.146;6.556;2022-11-15T02:51:50;6.90;99.90
54622;DHT22;40521;53.146;6.556;2022-11-15T02:54:19;8.30;99.90
54622;DHT22;40521;53.146;6.556;2022-11-15T02:56:49;6.90;99.90
54622;DHT22;40521;53.146;6.556;2022-11-15T02:59:22;6.80;99.90
54622;DHT22;40521;53.146;6.556;2022-11-15T03:07:19;6.90;99.90
54622;DHT22;40521;53.146;6.556;2022-11-15T03:12:18;6.90;99.90
54622;DHT22;40521;53.146;6.556;2022-11-15T03:15:05;7.00;99.90
54622;DHT22;40521;53.146;6.556;2022-11-15T03:17:39;6.90;99.90
54622;DHT22;40521;53.146;6.556;2022-11-15T03:20:06;5.20;99.90
54622;DHT22;40521;53.146;6.556;2022-11-15T03:22:36;7.00;99.90
54622;DHT22;40521;53.146;6.556;2022-11-15T03:25:04;7.10;99.90
54622;DHT22;40521;53.146;6.556;2022-11-15T03:27:50;7.00;99.90
54622;DHT22;40521;53.146;6.556;2022-11-15T03:30:17;7.20;99.90
54622;DHT22;40521;53.146;6.556;2022-11-15T03:32:44;7.40;99.90
54622;DHT22;40521;53.146;6.556;2022-11-15T03:35:19;7.00;99.90
54622;DHT22;40521;53.146;6.556;2022-11-15T03:40:42;7.10;99.90
54622;DHT22;40521;53.146;6.556;2022-11-15T03:43:22;6.00;99.90
54622;DHT22;40521;53.146;6.556;2022-11-15T03:45:51;7.70;99.90
54622;DHT22;40521;53.146;6.556;2022-11-15T03:48:26;7.10;99.90
54622;DHT22;40521;53.146;6.556;2022-11-15T03:50:59;7.10;99.90
54622;DHT22;40521;53.146;6.556;2022-11-15T03:53:27;7.10;99.90
54622;DHT22;40521;53.146;6.556;2022-11-15T03:55:53;6.10;99.90
54622;DHT22;40521;53.146;6.556;2022-11-15T03:58:19;7.20;99.90
54622;DHT22;40521;53.146;6.556;2022-11-15T04:00:47;7.50;99.90
54622;DHT22;40521;53.146;6.556;2022-11-15T04:03:12;7.20;99.90
54622;DHT22;40521;53.146;6.556;2022-11-15T04:05:40;7.40;99.90
54622;DHT22;40521;53.146;6.556;2022-11-15T04:08:06;7.20;99.90
54622;DHT22;40521;53.146;6.556;2022-11-15T04:10:32;7.30;99.90
54622;DHT22;40521;53.146;6.556;2022-11-15T04:12:57;7.40;99.90
54622;DHT22;40521;53.146;6.556;2022-11-15T04:15:23;7.60;99.90
54622;DHT22;40521;53.146;6.556;2022-11-15T04:17:53;7.30;99.90
54622;DHT22;40521;53.146;6.556;2022-11-15T04:20:26;7.40;99.90
54622;DHT22;40521;53.146;6.556;2022-11-15T04:23:11;7.40;99.90
54622;DHT22;40521;53.146;6.556;2022-11-15T04:26:02;7.30;99.90
54622;DHT22;40521;53.146;6.556;2022-11-15T04:28:35;6.40;99.90
54622;DHT22;40521;53.146;6.556;2022-11-15T04:31:22;7.40;99.90
54622;DHT22;40521;53.146;6.556;2022-11-15T04:33:50;7.70;99.90
54622;DHT22;40521;53.146;6.556;2022-11-15T04:36:21;7.50;99.90
54622;DHT22;40521;53.146;6.556;2022-11-15T04:39:06;6.40;99.90
54622;DHT22;40521;53.146;6.556;2022-11-15T04:41:31;7.40;99.90
54622;DHT22;40521;53.146;6.556;2022-11-15T04:44:00;7.40;99.90
54622;DHT22;40521;53.146;6.556;2022-11-15T04:46:26;6.30;99.90
54622;DHT22;40521;53.146;6.556;2022-11-15T04:48:52;5.90;99.90
54622;DHT22;40521;53.146;6.556;2022-11-15T04:51:17;7.70;99.90
54622;DHT22;40521;53.146;6.556;2022-11-15T04:53:46;6.00;99.90
54622;DHT22;40521;53.146;6.556;2022-11-15T04:56:23;7.40;99.90
54622;DHT22;40521;53.146;6.556;2022-11-15T04:58:51;7.70;99.90
54622;DHT22;40521;53.146;6.556;2022-11-15T05:01:20;7.60;99.90
54622;DHT22;40521;53.146;6.556;2022-11-15T05:03:46;6.10;99.90
54622;DHT22;40521;53.146;6.556;2022-11-15T05:06:31;7.50;99.90
54622;DHT22;40521;53.146;6.556;2022-11-15T05:09:02;7.50;99.90
54622;DHT22;40521;53.146;6.556;2022-11-15T05:11:28;8.00;99.90
54622;DHT22;40521;53.146;6.556;2022-11-15T05:13:56;7.60;99.90
54622;DHT22;40521;53.146;6.556;2022-11-15T05:16:22;7.60;99.90
54622;DHT22;40521;53.146;6.556;2022-11-15T05:18:51;7.60;99.90
54622;DHT22;40521;53.146;6.556;2022-11-15T05:21:17;6.90;99.90
54622;DHT22;40521;53.146;6.556;2022-11-15T05:23:48;7.80;99.90
54622;DHT22;40521;53.146;6.556;2022-11-15T05:26:14;7.70;99.90
54622;DHT22;40521;53.146;6.556;2022-11-15T05:28:43;8.70;99.90
54622;DHT22;40521;53.146;6.556;2022-11-15T05:31:13;7.70;99.90
54622;DHT22;40521;53.146;6.556;2022-11-15T05:33:39;7.70;99.90
54622;DHT22;40521;53.146;6.556;2022-11-15T05:39:06;7.70;99.90
54622;DHT22;40521;53.146;6.556;2022-11-15T05:41:33;7.70;99.90
54622;DHT22;40521;53.146;6.556;2022-11-15T05:44:00;7.80;99.90
54622;DHT22;40521;53.146;6.556;2022-11-15T05:46:26;6.60;99.90
54622;DHT22;40521;53.146;6.556;2022-11-15T05:48:55;7.20;99.90
54622;DHT22;40521;53.146;6.556;2022-11-15T05:51:21;8.10;99.90
54622;DHT22;40521;53.146;6.556;2022-11-15T05:53:48;8.20;99.90
54622;DHT22;40521;53.146;6.556;2022-11-15T05:56:14;8.10;99.90
54622;DHT22;40521;53.146;6.556;2022-11-15T05:58:40;7.90;99.90
54622;DHT22;40521;53.146;6.556;2022-11-15T06:01:09;8.10;99.90
54622;DHT22;40521;53.146;6.556;2022-11-15T06:03:37;8.20;99.90
54622;DHT22;40521;53.146;6.556;2022-11-15T06:06:03;8.20;99.90
54622;DHT22;40521;53.146;6.556;2022-11-15T06:08:39;7.40;99.90
54622;DHT22;40521;53.146;6.556;2022-11-15T06:11:05;8.40;99.90
54622;DHT22;40521;53.146;6.556;2022-11-15T06:13:31;8.20;99.90
54622;DHT22;40521;53.146;6.556;2022-11-15T06:16:03;8.40;99.90
54622;DHT22;40521;53.146;6.556;2022-11-15T06:18:35;8.20;99.90
54622;DHT22;40521;53.146;6.556;2022-11-15T06:21:01;6.70;99.90
54622;DHT22;40521;53.146;6.556;2022-11-15T06:23:27;8.30;99.90
54622;DHT22;40521;53.146;6.556;2022-11-15T06:25:53;8.30;99.90
54622;DHT22;40521;53.146;6.556;2022-11-15T06:28:18;6.90;99.90
54622;DHT22;40521;53.146;6.556;2022-11-15T06:30:44;8.40;99.90
54622;DHT22;40521;53.146;6.556;2022-11-15T06:33:12;7.20;99.90
54622;DHT22;40521;53.146;6.556;2022-11-15T06:35:44;8.60;99.90
54622;DHT22;40521;53.146;6.556;2022-11-15T06:38:12;8.50;99.90
54622;DHT22;40521;53.146;6.556;2022-11-15T06:40:47;8.50;99.90
54622;DHT22;40521;53.146;6.556;2022-11-15T06:43:13;8.50;99.90
54622;DHT22;40521;53.146;6.556;2022-11-15T06:45:40;8.60;99.90
54622;DHT22;40521;53.146;6.556;2022-11-15T06:48:11;8.30;99.90
54622;DHT22;40521;53.146;6.556;2022-11-15T06:50:36;8.60;99.90
54622;DHT22;40521;53.146;6.556;2022-11-15T06:53:14;8.60;99.90
54622;DHT22;40521;53.146;6.556;2022-11-15T06:55:45;8.70;99.90
54622;DHT22;40521;53.146;6.556;2022-11-15T06:58:13;8.70;99.90
54622;DHT22;40521;53.146;6.556;2022-11-15T07:01:04;9.00;99.90
54622;DHT22;40521;53.146;6.556;2022-11-15T07:03:48;9.00;99.90
54622;DHT22;40521;53.146;6.556;2022-11-15T07:06:21;9.90;99.90
54622;DHT22;40521;53.146;6.556;2022-11-15T07:18:42;8.80;99.90
54622;DHT22;40521;53.146;6.556;2022-11-15T07:21:40;9.10;99.90
54622;DHT22;40521;53.146;6.556;2022-11-15T07:33:12;8.90;99.90
54622;DHT22;40521;53.146;6.556;2022-11-15T07:39:42;8.30;99.90
54622;DHT22;40521;53.146;6.556;2022-11-15T07:42:47;9.20;99.90
54622;DHT22;40521;53.146;6.556;2022-11-15T07:45:54;9.10;99.90
54622;DHT22;40521;53.146;6.556;2022-11-15T07:48:32;9.30;99.90
54622;DHT22;40521;53.146;6.556;2022-11-15T07:51:01;9.20;99.90
54622;DHT22;40521;53.146;6.556;2022-11-15T07:53:52;9.20;99.90
54622;DHT22;40521;53.146;6.556;2022-11-15T07:56:39;9.50;99.90
54622;DHT22;40521;53.146;6.556;2022-11-15T07:59:33;9.30;99.90
54622;DHT22;40521;53.146;6.556;2022-11-15T08:02:23;9.40;99.90
54622;DHT22;40521;53.146;6.556;2022-11-15T08:08:19;9.60;99.90
54622;DHT22;40521;53.146;6.556;2022-11-15T08:14:32;9.80;99.90
54622;DHT22;40521;53.146;6.556;2022-11-15T08:27:41;9.70;99.90
54622;DHT22;40521;53.146;6.556;2022-11-15T08:30:44;9.80;99.90
54622;DHT22;40521;53.146;6.556;2022-11-15T08:33:25;9.70;99.90
54622;DHT22;40521;53.146;6.556;2022-11-15T08:36:13;9.90;99.90
54622;DHT22;40521;53.146;6.556;2022-11-15T08:38:42;9.70;99.90
54622;DHT22;40521;53.146;6.556;2022-11-15T08:41:32;9.20;99.90
54622;DHT22;40521;53.146;6.556;2022-11-15T08:44:14;10.10;99.90
54622;DHT22;40521;53.146;6.556;2022-11-15T08:47:22;9.90;99.90
54622;DHT22;40521;53.146;6.556;2022-11-15T08:50:06;10.20;99.90
54622;DHT22;40521;53.146;6.556;2022-11-15T08:52:55;9.90;99.90
54622;DHT22;40521;53.146;6.556;2022-11-15T08:55:30;10.20;99.90
54622;DHT22;40521;53.146;6.556;2022-11-15T09:01:18;10.10;99.90
54622;DHT22;40521;53.146;6.556;2022-11-15T09:03:47;10.10;99.90
54622;DHT22;40521;53.146;6.556;2022-11-15T09:06:15;10.10;99.90
54622;DHT22;40521;53.146;6.556;2022-11-15T09:08:48;10.30;99.90
54622;DHT22;40521;53.146;6.556;2022-11-15T09:11:14;9.30;99.90
54622;DHT22;40521;53.146;6.556;2022-11-15T09:13:41;10.40;99.90
54622;DHT22;40521;53.146;6.556;2022-11-15T09:16:27;10.60;99.90
54622;DHT22;40521;53.146;6.556;2022-11-15T09:18:56;10.40;99.90
54622;DHT22;40521;53.146;6.556;2022-11-15T09:21:22;10.30;99.90
54622;DHT22;40521;53.146;6.556;2022-11-15T09:24:19;10.60;99.90
54622;DHT22;40521;53.146;6.556;2022-11-15T09:26:45;10.70;99.90
54622;DHT22;40521;53.146;6.556;2022-11-15T09:29:18;10.70;99.90
54622;DHT22;40521;53.146;6.556;2022-11-15T09:31:46;10.60;99.90
54622;DHT22;40521;53.146;6.556;2022-11-15T09:34:12;10.60;99.90
54622;DHT22;40521;53.146;6.556;2022-11-15T09:36:38;10.70;99.90
54622;DHT22;40521;53.146;6.556;2022-11-15T09:39:15;11.10;99.90
54622;DHT22;40521;53.146;6.556;2022-11-15T09:42:13;10.70;99.90
54622;DHT22;40521;53.146;6.556;2022-11-15T09:44:49;10.90;99.90
54622;DHT22;40521;53.146;6.556;2022-11-15T09:47:38;11.00;99.90
54622;DHT22;40521;53.146;6.556;2022-11-15T09:50:11;12.20;99.90
54622;DHT22;40521;53.146;6.556;2022-11-15T09:52:47;10.70;99.90
54622;DHT22;40521;53.146;6.556;2022-11-15T09:55:16;10.50;99.90
54622;DHT22;40521;53.146;6.556;2022-11-15T10:00:37;11.10;99.90
54622;DHT22;40521;53.146;6.556;2022-11-15T10:06:02;11.10;99.90
54622;DHT22;40521;53.146;6.556;2022-11-15T10:08:40;11.50;99.90
54622;DHT22;40521;53.146;6.556;2022-11-15T10:11:12;11.10;99.90
54622;DHT22;40521;53.146;6.556;2022-11-15T10:13:44;11.00;99.90
54622;DHT22;40521;53.146;6.556;2022-11-15T10:18:53;11.20;99.90
54622;DHT22;40521;53.146;6.556;2022-11-15T10:21:23;10.90;99.90
54622;DHT22;40521;53.146;6.556;2022-11-15T10:23:53;11.20;99.90
54622;DHT22;40521;53.146;6.556;2022-11-15T10:26:21;11.10;99.90
54622;DHT22;40521;53.146;6.556;2022-11-15T10:28:49;11.30;99.90
54622;DHT22;40521;53.146;6.556;2022-11-15T10:31:21;11.20;99.90
54622;DHT22;40521;53.146;6.556;2022-11-15T10:34:09;11.20;99.90
54622;DHT22;40521;53.146;6.556;2022-11-15T10:36:53;11.20;99.90
54622;DHT22;40521;53.146;6.556;2022-11-15T10:39:21;11.20;99.90
54622;DHT22;40521;53.146;6.556;2022-11-15T10:41:47;11.20;99.90
54622;DHT22;40521;53.146;6.556;2022-11-15T10:44:24;9.80;99.90
54622;DHT22;40521;53.146;6.556;2022-11-15T10:49:29;12.80;99.90
54622;DHT22;40521;53.146;6.556;2022-11-15T10:54:45;11.40;99.90
54622;DHT22;40521;53.146;6.556;2022-11-15T10:57:22;11.20;99.90
54622;DHT22;40521;53.146;6.556;2022-11-15T11:00:25;11.40;99.90
54622;DHT22;40521;53.146;6.556;2022-11-15T11:02:37;11.20;99.90
54622;DHT22;40521;53.146;6.556;2022-11-15T11:05:24;11.30;99.90
54622;DHT22;40521;53.146;6.556;2022-11-15T11:07:59;11.60;99.90
54622;DHT22;40521;53.146;6.556;2022-11-15T11:10:26;11.50;99.90
54622;DHT22;40521;53.146;6.556;2022-11-15T11:13:07;11.30;99.90
54622;DHT22;40521;53.146;6.556;2022-11-15T11:15:37;11.40;99.90
54622;DHT22;40521;53.146;6.556;2022-11-15T11:25:54;11.70;99.90
54622;DHT22;40521;53.146;6.556;2022-11-15T11:36:27;11.00;99.90
54622;DHT22;40521;53.146;6.556;2022-11-15T11:41:32;12.00;99.90
54622;DHT22;40521;53.146;6.556;2022-11-15T11:47:03;12.50;99.90
54622;DHT22;40521;53.146;6.556;2022-11-15T11:49:52;11.50;99.90
54622;DHT22;40521;53.146;6.556;2022-11-15T11:52:43;11.70;99.90
54622;DHT22;40521;53.146;6.556;2022-11-15T11:55:16;11.60;99.90
54622;DHT22;40521;53.146;6.556;2022-11-15T12:00:25;14.00;99.90
54622;DHT22;40521;53.146;6.556;2022-11-15T12:03:02;11.60;99.90
54622;DHT22;40521;53.146;6.556;2022-11-15T12:05:38;11.30;99.90
54622;DHT22;40521;53.146;6.556;2022-11-15T12:10:50;11.70;99.90
54622;DHT22;40521;53.146;6.556;2022-11-15T12:13:35;12.50;99.90
54622;DHT22;40521;53.146;6.556;2022-11-15T12:16:20;11.40;99.90
54622;DHT22;40521;53.146;6.556;2022-11-15T12:18:55;12.90;99.90
54622;DHT22;40521;53.146;6.556;2022-11-15T12:23:53;12.10;99.90
54622;DHT22;40521;53.146;6.556;2022-11-15T12:26:54;11.00;99.90
54622;DHT22;40521;53.146;6.556;2022-11-15T12:29:22;12.10;99.90
54622;DHT22;40521;53.146;6.556;2022-11-15T12:31:55;12.00;99.90
54622;DHT22;40521;53.146;6.556;2022-11-15T12:45:45;12.30;99.90
54622;DHT22;40521;53.146;6.556;2022-11-15T12:50:59;11.60;99.90
54622;DHT22;40521;53.146;6.556;2022-11-15T12:53:43;13.70;99.90
54622;DHT22;40521;53.146;6.556;2022-11-15T13:11:48;12.80;99.90
54622;DHT22;40521;53.146;6.556;2022-11-15T13:14:55;12.80;99.90
54622;DHT22;40521;53.146;6.556;2022-11-15T13:23:52;12.70;99.90
54622;DHT22;40521;53.146;6.556;2022-11-15T13:26:39;12.70;99.90
54622;DHT22;40521;53.146;6.556;2022-11-15T13:29:21;12.00;99.90
54622;DHT22;40521;53.146;6.556;2022-11-15T13:31:50;12.60;99.90
54622;DHT22;40521;53.146;6.556;2022-11-15T13:34:43;12.50;99.90
54622;DHT22;40521;53.146;6.556;2022-11-15T13:37:34;11.20;99.90
54622;DHT22;40521;53.146;6.556;2022-11-15T13:42:54;12.30;99.90
54622;DHT22;40521;53.146;6.556;2022-11-15T13:45:30;12.40;99.90
54622;DHT22;40521;53.146;6.556;2022-11-15T13:48:16;12.20;99.90
54622;DHT22;40521;53.146;6.556;2022-11-15T13:51:03;11.30;99.90
54622;DHT22;40521;53.146;6.556;2022-11-15T13:53:34;12.30;99.90
54622;DHT22;40521;53.146;6.556;2022-11-15T13:59:33;12.10;99.90
54622;DHT22;40521;53.146;6.556;2022-11-15T14:05:14;13.20;99.90
54622;DHT22;40521;53.146;6.556;2022-11-15T14:11:09;11.70;99.90
54622;DHT22;40521;53.146;6.556;2022-11-15T14:16:59;11.90;99.90
54622;DHT22;40521;53.146;6.556;2022-11-15T14:30:56;11.80;99.90
54622;DHT22;40521;53.146;6.556;2022-11-15T14:33:33;11.70;99.90
54622;DHT22;40521;53.146;6.556;2022-11-15T14:36:27;10.90;99.90
54622;DHT22;40521;53.146;6.556;2022-11-15T14:38:58;11.90;99.90
54622;DHT22;40521;53.146;6.556;2022-11-15T14:41:33;11.50;99.90
54622;DHT22;40521;53.146;6.556;2022-11-15T14:47:44;11.50;99.90
54622;DHT22;40521;53.146;6.556;2022-11-15T14:50:17;10.10;99.90
54622;DHT22;40521;53.146;6.556;2022-11-15T14:56:04;11.20;99.90
54622;DHT22;40521;53.146;6.556;2022-11-15T14:58:32;11.00;99.90
54622;DHT22;40521;53.146;6.556;2022-11-15T15:01:05;10.90;99.90
54622;DHT22;40521;53.146;6.556;2022-11-15T15:03:45;10.90;99.90
54622;DHT22;40521;53.146;6.556;2022-11-15T15:06:14;11.10;99.90
54622;DHT22;40521;53.146;6.556;2022-11-15T15:08:42;10.80;99.90
54622;DHT22;40521;53.146;6.556;2022-11-15T15:11:25;10.90;99.90
54622;DHT22;40521;53.146;6.556;2022-11-15T15:13:52;10.60;99.90
54622;DHT22;40521;53.146;6.556;2022-11-15T15:16:20;10.60;99.90
54622;DHT22;40521;53.146;6.556;2022-11-15T15:18:47;10.40;99.90
54622;DHT22;40521;53.146;6.556;2022-11-15T15:21:26;10.70;99.90
54622;DHT22;40521;53.146;6.556;2022-11-15T15:23:53;10.50;99.90
54622;DHT22;40521;53.146;6.556;2022-11-15T15:26:24;10.10;99.90
54622;DHT22;40521;53.146;6.556;2022-11-15T15:28:50;9.40;99.90
54622;DHT22;40521;53.146;6.556;2022-11-15T15:31:32;11.50;99.90
54622;DHT22;40521;53.146;6.556;2022-11-15T15:34:09;10.50;99.90
54622;DHT22;40521;53.146;6.556;2022-11-15T15:37:04;10.50;99.90
54622;DHT22;40521;53.146;6.556;2022-11-15T15:39:40;10.30;99.90
54622;DHT22;40521;53.146;6.556;2022-11-15T15:42:06;10.30;99.90
54622;DHT22;40521;53.146;6.556;2022-11-15T15:44:32;10.20;99.90
54622;DHT22;40521;53.146;6.556;2022-11-15T15:47:00;10.20;99.90
54622;DHT22;40521;53.146;6.556;2022-11-15T15:55:38;9.70;99.90
54622;DHT22;40521;53.146;6.556;2022-11-15T15:58:07;10.60;99.90
54622;DHT22;40521;53.146;6.556;2022-11-15T16:00:44;10.30;99.90
54622;DHT22;40521;53.146;6.556;2022-11-15T16:03:17;10.50;99.90
54622;DHT22;40521;53.146;6.556;2022-11-15T16:05:45;10.30;99.90
54622;DHT22;40521;53.146;6.556;2022-11-15T16:08:24;10.40;99.90
54622;DHT22;40521;53.146;6.556;2022-11-15T16:11:02;8.80;99.90
54622;DHT22;40521;53.146;6.556;2022-11-15T16:13:50;10.30;99.90
54622;DHT22;40521;53.146;6.556;2022-11-15T16:16:45;8.70;99.90
54622;DHT22;40521;53.146;6.556;2022-11-15T16:19:23;12.30;99.90
54622;DHT22;40521;53.146;6.556;2022-11-15T16:21:57;10.10;99.90
54622;DHT22;40521;53.146;6.556;2022-11-15T16:24:30;9.30;99.90
54622;DHT22;40521;53.146;6.556;2022-11-15T16:27:15;10.10;99.90
54622;DHT22;40521;53.146;6.556;2022-11-15T16:29:51;10.10;99.90
54622;DHT22;40521;53.146;6.556;2022-11-15T16:32:20;11.40;99.90
54622;DHT22;40521;53.146;6.556;2022-11-15T16:34:57;10.20;99.90
54622;DHT22;40521;53.146;6.556;2022-11-15T16:37:42;10.10;99.90
54622;DHT22;40521;53.146;6.556;2022-11-15T16:40:26;10.20;99.90
54622;DHT22;40521;53.146;6.556;2022-11-15T16:46:23;10.10;99.90
54622;DHT22;40521;53.146;6.556;2022-11-15T16:49:02;11.00;99.90
54622;DHT22;40521;53.146;6.556;2022-11-15T16:51:46;10.10;99.90
54622;DHT22;40521;53.146;6.556;2022-11-15T16:54:24;11.80;99.90
54622;DHT22;40521;53.146;6.556;2022-11-15T16:57:02;10.20;99.90
54622;DHT22;40521;53.146;6.556;2022-11-15T17:00:05;10.40;99.90
54622;DHT22;40521;53.146;6.556;2022-11-15T17:02:33;11.50;99.90
54622;DHT22;40521;53.146;6.556;2022-11-15T17:05:11;10.20;99.90
54622;DHT22;40521;53.146;6.556;2022-11-15T17:07:56;8.70;99.90
54622;DHT22;40521;53.146;6.556;2022-11-15T17:10:25;10.50;99.90
54622;DHT22;40521;53.146;6.556;2022-11-15T17:13:02;10.60;99.90
54622;DHT22;40521;53.146;6.556;2022-11-15T17:15:33;10.40;99.90
54622;DHT22;40521;53.146;6.556;2022-11-15T17:18:09;9.00;99.90
54622;DHT22;40521;53.146;6.556;2022-11-15T17:20:35;10.30;99.90
54622;DHT22;40521;53.146;6.556;2022-11-15T17:28:58;10.30;99.90
54622;DHT22;40521;53.146;6.556;2022-11-15T17:31:45;9.60;99.90
54622;DHT22;40521;53.146;6.556;2022-11-15T17:34:23;10.50;99.90
54622;DHT22;40521;53.146;6.556;2022-11-15T17:36:56;10.60;99.90
54622;DHT22;40521;53.146;6.556;2022-11-15T17:48:18;10.70;99.90
54622;DHT22;40521;53.146;6.556;2022-11-15T17:50:51;9.70;99.90
54622;DHT22;40521;53.146;6.556;2022-11-15T17:53:21;10.50;99.90
54622;DHT22;40521;53.146;6.556;2022-11-15T17:55:47;10.40;99.90
54622;DHT22;40521;53.146;6.556;2022-11-15T17:58:15;9.20;99.90
54622;DHT22;40521;53.146;6.556;2022-11-15T18:00:47;10.80;99.90
54622;DHT22;40521;53.146;6.556;2022-11-15T18:03:13;10.40;99.90
54622;DHT22;40521;53.146;6.556;2022-11-15T18:05:42;10.30;99.90
54622;DHT22;40521;53.146;6.556;2022-11-15T18:08:09;10.80;99.90
54622;DHT22;40521;53.146;6.556;2022-11-15T18:10:39;10.50;99.90
54622;DHT22;40521;53.146;6.556;2022-11-15T18:13:05;10.30;99.90
54622;DHT22;40521;53.146;6.556;2022-11-15T18:15:31;10.30;99.90
54622;DHT22;40521;53.146;6.556;2022-11-15T18:18:02;10.90;99.90
54622;DHT22;40521;53.146;6.556;2022-11-15T18:20:34;10.30;99.90
54622;DHT22;40521;53.146;6.556;2022-11-15T18:23:04;9.70;99.90
54622;DHT22;40521;53.146;6.556;2022-11-15T18:25:40;10.30;99.90
54622;DHT22;40521;53.146;6.556;2022-11-15T18:28:08;9.50;99.90
54622;DHT22;40521;53.146;6.556;2022-11-15T18:30:33;10.30;99.90
54622;DHT22;40521;53.146;6.556;2022-11-15T18:33:02;9.70;99.90
54622;DHT22;40521;53.146;6.556;2022-11-15T18:35:30;10.60;99.90
54622;DHT22;40521;53.146;6.556;2022-11-15T18:37:56;10.30;99.90
54622;DHT22;40521;53.146;6.556;2022-11-15T18:40:26;10.50;99.90
54622;DHT22;40521;53.146;6.556;2022-11-15T18:42:52;10.20;99.90
54622;DHT22;40521;53.146;6.556;2022-11-15T18:45:19;10.30;99.90
54622;DHT22;40521;53.146;6.556;2022-11-15T18:47:45;10.30;99.90
54622;DHT22;40521;53.146;6.556;2022-11-15T18:50:10;10.50;99.90
54622;DHT22;40521;53.146;6.556;2022-11-15T18:52:36;10.50;99.90
54622;DHT22;40521;53.146;6.556;2022-11-15T18:55:02;10.60;99.90
54622;DHT22;40521;53.146;6.556;2022-11-15T18:57:28;9.30;99.90
54622;DHT22;40521;53.146;6.556;2022-11-15T18:59:56;9.40;99.90
54622;DHT22;40521;53.146;6.556;2022-11-15T19:02:38;10.30;99.90
54622;DHT22;40521;53.146;6.556;2022-11-15T19:05:07;10.20;99.90
54622;DHT22;40521;53.146;6.556;2022-11-15T19:07:59;10.50;99.90
54622;DHT22;40521;53.146;6.556;2022-11-15T19:10:33;10.60;99.90
54622;DHT22;40521;53.146;6.556;2022-11-15T19:12:58;10.40;99.90
54622;DHT22;40521;53.146;6.556;2022-11-15T19:15:39;10.60;99.90
54622;DHT22;40521;53.146;6.556;2022-11-15T19:18:08;9.90;99.90
54622;DHT22;40521;53.146;6.556;2022-11-15T19:20:34;10.50;99.90
54622;DHT22;40521;53.146;6.556;2022-11-15T19:23:18;10.50;99.90
54622;DHT22;40521;53.146;6.556;2022-11-15T19:25:52;10.40;99.90
54622;DHT22;40521;53.146;6.556;2022-11-15T19:28:20;10.30;99.90
54622;DHT22;40521;53.146;6.556;2022-11-15T19:30:48;10.40;99.90
54622;DHT22;40521;53.146;6.556;2022-11-15T19:33:13;10.50;99.90
54622;DHT22;40521;53.146;6.556;2022-11-15T19:35:44;10.60;99.90
54622;DHT22;40521;53.146;6.556;2022-11-15T19:38:15;10.40;99.90
54622;DHT22;40521;53.146;6.556;2022-11-15T19:40:43;10.40;99.90
54622;DHT22;40521;53.146;6.556;2022-11-15T19:43:09;10.70;99.90
54622;DHT22;40521;53.146;6.556;2022-11-15T19:45:37;10.40;99.90
54622;DHT22;40521;53.146;6.556;2022-11-15T19:48:03;10.40;99.90
54622;DHT22;40521;53.146;6.556;2022-11-15T19:50:31;10.40;99.90
54622;DHT22;40521;53.146;6.556;2022-11-15T19:52:57;10.30;99.90